Terminal Aerodrome Forecast
Issued by NWS Brownsville, TX

Home | Current Version | Previous Version | Text Only | Print | Product List | Glossary On
Versions: 1 2 3 4 5 6 7 8 9 10 11 12 13 14 15 16
000
FTUS44 KBRO 190749 AAA
TAFHRL
TAF AMD
KHRL 190749Z 1908/2006 00000KT P6SM VCTS FEW070CB SCT110
      TEMPO 1908/1910 VRB15G30KT 2SM TSRA BR BKN035CB
     FM191000 32002KT P6SM -RA BKN015
     FM191200 32002KT 4SM RA BR BKN009
     FM191700 24004KT P6SM BKN015
     FM192100 24004KT P6SM SCT015 BKN035=

USA.gov is the U.S. government's official web portal to all federal, state and local government web resources and services.